Time;durP1;ratioP1;P1;durP2;ratioP2;P2;SDS_P1;SDS_P2;PMS_P1;PMS_P2;Temp;Humidity;BMP_temperature;BMP_pressure;BME280_temperature;BME280_humidity;BME280_pressure;Samples;Min_cycle;Max_cycle;Signal;HPM_P1;HPM_P2
2024/01/28 00:02:17;;;;;;;5.40;1.92;;;11.30;85.20;;;;;;5074966;28;20028;-81
2024/01/28 00:04:43;;;;;;;5.03;2.00;;;11.40;85.30;;;;;;5074956;28;20123;-81
2024/01/28 00:07:08;;;;;;;4.72;1.73;;;11.30;85.30;;;;;;5075000;28;20069;-80
2024/01/28 00:09:34;;;;;;;4.18;1.92;;;11.30;85.20;;;;;;5074874;28;20024;-81
2024/01/28 00:11:59;;;;;;;5.05;1.90;;;11.30;85.20;;;;;;5075026;28;20031;-81
2024/01/28 00:14:25;;;;;;;3.58;1.80;;;11.30;85.30;;;;;;5074828;28;20035;-81
2024/01/28 00:16:50;;;;;;;4.50;1.90;;;11.30;85.30;;;;;;5074946;28;20024;-82
2024/01/28 00:19:16;;;;;;;4.38;1.90;;;11.30;85.30;;;;;;5074887;28;20023;-81
2024/01/28 00:21:41;;;;;;;5.60;2.10;;;11.40;85.30;;;;;;5093204;28;20024;-80
2024/01/28 00:24:07;;;;;;;3.72;1.77;;;11.30;85.20;;;;;;5074841;28;20024;-81
2024/01/28 00:26:40;;;;;;;4.53;1.70;;;11.30;85.20;;;;;;5074692;28;20020;-81
2024/01/28 00:29:06;;;;;;;4.28;1.88;;;11.30;85.20;;;;;;5074662;28;20031;-81
2024/01/28 00:31:32;;;;;;;4.47;1.80;;;11.30;85.20;;;;;;5074634;28;20121;-80
2024/01/28 00:33:58;;;;;;;2.63;1.40;;;11.30;85.20;;;;;;5074875;28;20485;-81
2024/01/28 00:36:23;;;;;;;4.18;1.90;;;11.30;85.20;;;;;;5074618;28;20050;-81
2024/01/28 00:38:49;;;;;;;4.05;1.70;;;11.30;85.20;;;;;;5074641;28;20389;-81
2024/01/28 00:41:22;;;;;;;4.82;2.03;;;11.30;85.20;;;;;;5074887;28;20020;-81
2024/01/28 00:43:49;;;;;;;4.22;1.75;;;11.30;85.20;;;;;;5074696;28;20477;-81
2024/01/28 00:46:14;;;;;;;3.33;1.75;;;11.30;85.20;;;;;;5074251;28;20396;-81
2024/01/28 00:48:39;;;;;;;4.05;1.85;;;11.30;85.20;;;;;;5074831;28;20028;-80
2024/01/28 00:51:05;;;;;;;3.83;1.70;;;11.30;85.20;;;;;;5074721;28;20028;-80
2024/01/28 00:53:30;;;;;;;4.70;1.95;;;11.30;85.20;;;;;;5074549;28;20028;-81
2024/01/28 00:55:57;;;;;;;4.82;2.03;;;11.30;85.20;;;;;;5074257;28;20169;-81
2024/01/28 00:58:22;;;;;;;4.82;1.85;;;11.30;85.20;;;;;;5092559;28;20032;-80
2024/01/28 01:00:48;;;;;;;4.13;1.88;;;11.30;85.20;;;;;;5074246;28;20028;-82
2024/01/28 01:03:14;;;;;;;5.20;2.30;;;11.30;85.20;;;;;;5092405;28;20595;-81
2024/01/28 01:05:41;;;;;;;5.25;2.03;;;11.30;85.20;;;;;;5074486;28;20099;-81
2024/01/28 01:08:07;;;;;;;4.45;1.90;;;11.30;85.20;;;;;;5074342;28;20020;-81
2024/01/28 01:10:33;;;;;;;4.55;2.00;;;11.30;85.20;;;;;;5074365;28;20051;-81
2024/01/28 01:12:58;;;;;;;4.53;1.63;;;11.30;85.20;;;;;;5074322;28;20090;-81
2024/01/28 01:15:24;;;;;;;5.03;2.08;;;11.30;85.20;;;;;;5092326;28;20024;-80
2024/01/28 01:17:50;;;;;;;3.88;1.80;;;11.30;85.20;;;;;;5074270;28;20024;-81
2024/01/28 01:20:17;;;;;;;4.15;1.90;;;11.30;85.10;;;;;;5092471;28;20074;-81
2024/01/28 01:22:44;;;;;;;3.95;1.75;;;11.30;85.10;;;;;;5074210;28;20401;-81
2024/01/28 01:25:09;;;;;;;5.07;1.90;;;11.30;85.10;;;;;;5074094;28;20027;-80
2024/01/28 01:27:35;;;;;;;4.95;1.85;;;11.30;85.20;;;;;;5073994;28;20400;-81
2024/01/28 01:30:00;;;;;;;4.82;1.80;;;11.30;85.10;;;;;;5092177;28;20489;-81
2024/01/28 01:32:26;;;;;;;5.00;1.83;;;11.30;85.10;;;;;;5073990;28;20028;-83
2024/01/28 01:34:51;;;;;;;4.97;1.80;;;11.30;85.10;;;;;;5091891;28;20036;-82
2024/01/28 01:37:17;;;;;;;4.82;2.00;;;11.30;85.10;;;;;;5073652;28;20281;-82
2024/01/28 01:39:42;;;;;;;4.13;1.70;;;11.30;85.10;;;;;;5074112;28;20356;-81
2024/01/28 01:42:08;;;;;;;5.03;2.05;;;11.30;85.20;;;;;;5074198;28;20151;-81
2024/01/28 01:44:34;;;;;;;4.50;1.88;;;11.30;85.10;;;;;;5092132;28;20462;-80
2024/01/28 01:46:59;;;;;;;5.78;2.08;;;11.30;85.10;;;;;;5073848;28;20078;-81
2024/01/28 01:49:26;;;;;;;5.05;2.38;;;11.30;85.10;;;;;;5092202;28;20032;-80
2024/01/28 01:51:51;;;;;;;4.45;1.80;;;11.30;85.10;;;;;;5092296;28;20024;-80
2024/01/28 01:54:17;;;;;;;4.13;1.80;;;11.30;85.10;;;;;;5073859;28;20115;-81
2024/01/28 01:56:42;;;;;;;4.45;1.98;;;11.30;85.10;;;;;;5091909;28;20468;-81
2024/01/28 01:59:08;;;;;;;4.35;1.77;;;11.30;85.00;;;;;;5075529;28;20020;-80
2024/01/28 02:01:34;;;;;;;5.20;2.08;;;11.30;85.10;;;;;;5095663;28;20027;-80
2024/01/28 02:03:59;;;;;;;4.22;1.92;;;11.30;85.10;;;;;;5077320;28;20024;-81
2024/01/28 02:06:26;;;;;;;5.03;2.05;;;11.30;85.10;;;;;;5095160;28;20039;-81
2024/01/28 02:08:52;;;;;;;3.53;1.58;;;11.30;85.10;;;;;;5077246;28;20028;-81
2024/01/28 02:11:17;;;;;;;4.35;1.88;;;11.30;85.10;;;;;;5077199;28;20030;-81
2024/01/28 02:13:43;;;;;;;3.88;1.90;;;11.30;85.10;;;;;;5077151;28;20024;-82
2024/01/28 02:16:08;;;;;;;4.80;2.00;;;11.30;85.10;;;;;;5077037;28;20369;-81
2024/01/28 02:18:34;;;;;;;3.65;1.70;;;11.30;85.20;;;;;;5077156;28;20039;-81
2024/01/28 02:20:59;;;;;;;5.65;1.90;;;11.20;85.10;;;;;;5077247;28;20023;-81
2024/01/28 02:23:25;;;;;;;4.30;2.00;;;11.30;85.10;;;;;;5077286;28;20047;-82
2024/01/28 02:25:50;;;;;;;4.55;1.98;;;11.30;85.10;;;;;;5076834;28;20241;-80
2024/01/28 02:28:16;;;;;;;3.50;1.70;;;11.30;85.30;;;;;;5077045;28;20107;-80
2024/01/28 02:30:42;;;;;;;5.10;2.05;;;11.30;85.20;;;;;;5095220;28;20054;-80
2024/01/28 02:33:07;;;;;;;3.92;1.80;;;11.30;85.20;;;;;;5076976;28;20024;-81
2024/01/28 02:35:33;;;;;;;5.05;1.98;;;11.30;85.20;;;;;;5094572;28;20059;-81
2024/01/28 02:37:58;;;;;;;4.47;1.80;;;11.30;85.20;;;;;;5094751;28;20020;-81
2024/01/28 02:40:24;;;;;;;4.55;1.88;;;11.20;85.10;;;;;;5076794;28;20072;-83
2024/01/28 02:42:49;;;;;;;4.45;1.83;;;11.30;85.20;;;;;;5076685;28;20020;-80
2024/01/28 02:45:15;;;;;;;4.03;1.85;;;11.30;85.10;;;;;;5076716;28;20028;-81
2024/01/28 02:47:41;;;;;;;3.55;1.80;;;11.30;85.10;;;;;;5076617;28;20020;-80
2024/01/28 02:50:07;;;;;;;4.90;1.90;;;11.30;85.10;;;;;;5076429;28;20116;-81
2024/01/28 02:52:32;;;;;;;4.00;1.85;;;11.30;85.10;;;;;;5076906;28;20028;-81
2024/01/28 02:54:58;;;;;;;5.72;2.03;;;11.30;85.10;;;;;;5076530;28;20464;-81
2024/01/28 02:57:23;;;;;;;4.88;2.05;;;11.30;85.10;;;;;;5076470;28;20016;-81
2024/01/28 02:59:50;;;;;;;4.00;1.85;;;11.20;85.00;;;;;;5076510;28;20086;-81
2024/01/28 03:02:17;;;;;;;4.38;2.00;;;11.20;85.00;;;;;;5076212;28;20495;-81
2024/01/28 03:04:42;;;;;;;4.07;1.80;;;11.20;85.00;;;;;;5094077;28;20024;-81
2024/01/28 03:07:08;;;;;;;4.55;1.98;;;11.20;85.10;;;;;;5076309;28;20115;-81
2024/01/28 03:09:33;;;;;;;5.90;2.00;;;11.30;85.10;;;;;;5094186;28;20055;-82
2024/01/28 03:11:59;;;;;;;4.50;1.95;;;11.20;85.10;;;;;;5076131;28;20530;-82
2024/01/28 03:14:26;;;;;;;4.50;2.00;;;11.30;85.10;;;;;;5076031;28;20077;-81
2024/01/28 03:16:51;;;;;;;3.65;1.80;;;11.20;85.10;;;;;;5075869;28;20115;-81
2024/01/28 03:19:16;;;;;;;4.78;2.13;;;11.20;85.10;;;;;;5075757;28;20066;-81
2024/01/28 03:21:42;;;;;;;4.20;1.88;;;11.20;85.00;;;;;;5094047;28;20024;-81
2024/01/28 03:24:07;;;;;;;4.35;1.80;;;11.20;85.00;;;;;;5075820;28;20020;-81
2024/01/28 03:26:34;;;;;;;5.45;2.15;;;11.20;85.00;;;;;;5075767;28;20052;-81
2024/01/28 03:29:00;;;;;;;4.63;2.08;;;11.20;85.00;;;;;;5093907;28;20130;-81
2024/01/28 03:31:25;;;;;;;4.97;2.25;;;11.20;85.00;;;;;;5093534;28;20039;-79
2024/01/28 03:33:51;;;;;;;5.03;2.25;;;11.20;85.00;;;;;;5091129;27;20027;-80
2024/01/28 03:36:17;;;;;;;5.22;2.20;;;11.20;85.00;;;;;;5075520;28;20028;-80
2024/01/28 03:38:42;;;;;;;3.67;1.83;;;11.30;85.00;;;;;;5075685;28;20535;-80
2024/01/28 03:41:08;;;;;;;5.63;1.90;;;11.20;85.00;;;;;;5075640;28;20088;-80
2024/01/28 03:43:33;;;;;;;3.42;1.80;;;11.30;85.00;;;;;;5075540;28;20031;-79
2024/01/28 03:45:59;;;;;;;4.00;1.90;;;11.20;85.00;;;;;;5075415;28;20046;-81
2024/01/28 03:48:24;;;;;;;4.20;1.90;;;11.20;84.90;;;;;;5075296;28;20059;-80
2024/01/28 03:50:49;;;;;;;4.53;2.00;;;11.30;85.00;;;;;;5075356;28;20027;-81
2024/01/28 03:53:15;;;;;;;5.80;2.08;;;11.20;85.00;;;;;;5075598;28;20532;-81
2024/01/28 03:55:43;;;;;;;4.15;2.03;;;11.20;84.90;;;;;;5075322;28;20020;-81
2024/01/28 03:58:10;;;;;;;4.68;1.90;;;11.20;85.00;;;;;;5075404;28;20059;-81
2024/01/28 04:00:35;;;;;;;4.05;1.90;;;11.20;85.00;;;;;;5075200;28;20503;-80
2024/01/28 04:03:01;;;;;;;4.20;2.13;;;11.20;85.00;;;;;;5075259;28;20029;-80
2024/01/28 04:05:27;;;;;;;4.18;1.75;;;11.20;84.90;;;;;;5093957;28;20048;-81
2024/01/28 04:07:52;;;;;;;3.83;1.90;;;11.30;85.00;;;;;;5075065;28;20055;-81
2024/01/28 04:10:18;;;;;;;3.90;1.90;;;11.20;84.90;;;;;;5075118;28;20032;-81
2024/01/28 04:12:44;;;;;;;4.22;2.10;;;11.20;85.00;;;;;;5075152;28;20473;-80
2024/01/28 04:15:09;;;;;;;4.90;1.83;;;11.20;85.00;;;;;;5074880;28;20122;-81
2024/01/28 04:17:35;;;;;;;5.57;2.30;;;11.20;85.40;;;;;;5074813;28;20099;-81
2024/01/28 04:20:03;;;;;;;5.25;2.15;;;11.20;85.00;;;;;;5074812;28;20069;-81
2024/01/28 04:22:30;;;;;;;4.18;1.98;;;11.20;85.00;;;;;;5092407;28;20023;-81
2024/01/28 04:24:55;;;;;;;4.32;2.00;;;11.20;85.00;;;;;;5074701;28;20098;-81
2024/01/28 04:27:21;;;;;;;4.55;2.13;;;11.20;85.00;;;;;;5092921;28;20024;-81
2024/01/28 04:29:46;;;;;;;3.72;1.80;;;11.20;85.00;;;;;;5092947;28;20469;-81
2024/01/28 04:32:14;;;;;;;4.20;2.00;;;11.20;85.00;;;;;;5092866;28;20131;-80
2024/01/28 04:34:40;;;;;;;4.55;2.08;;;11.20;85.00;;;;;;5074499;28;20024;-81
2024/01/28 04:37:06;;;;;;;4.95;2.10;;;11.20;85.00;;;;;;5092595;28;20031;-81
2024/01/28 04:39:32;;;;;;;4.55;2.25;;;11.20;85.00;;;;;;5074570;28;20058;-80
2024/01/28 04:41:57;;;;;;;4.07;2.03;;;11.20;85.00;;;;;;5074717;28;20105;-81
2024/01/28 04:44:23;;;;;;;3.70;1.92;;;11.20;85.00;;;;;;5074414;28;20115;-80
2024/01/28 04:46:48;;;;;;;4.65;2.03;;;11.10;84.90;;;;;;5074503;28;20374;-81
2024/01/28 04:49:14;;;;;;;3.60;1.73;;;11.20;84.90;;;;;;5074590;28;20048;-81
2024/01/28 04:51:40;;;;;;;4.80;1.90;;;11.20;85.00;;;;;;5092818;28;20032;-80
2024/01/28 04:54:05;;;;;;;3.60;2.00;;;11.20;84.90;;;;;;5074568;28;20028;-81
2024/01/28 04:56:31;;;;;;;4.55;1.95;;;11.20;84.90;;;;;;5074055;28;20400;-80
2024/01/28 04:58:57;;;;;;;4.55;2.00;;;11.20;85.00;;;;;;5074350;28;20040;-81
2024/01/28 05:01:23;;;;;;;5.05;2.10;;;11.20;84.90;;;;;;5092555;28;20027;-81
2024/01/28 05:03:49;;;;;;;4.13;2.03;;;11.20;84.90;;;;;;5074467;28;20024;-81
2024/01/28 05:06:14;;;;;;;4.93;2.10;;;11.20;85.00;;;;;;5074319;28;20027;-81
2024/01/28 05:08:40;;;;;;;4.78;1.80;;;11.20;85.00;;;;;;5074396;28;20024;-81
2024/01/28 05:11:06;;;;;;;4.97;2.53;;;11.20;84.90;;;;;;5074666;28;20020;-81
2024/01/28 05:13:32;;;;;;;5.35;2.33;;;11.20;84.90;;;;;;5074109;28;20033;-79
2024/01/28 05:15:58;;;;;;;4.63;2.30;;;11.20;84.90;;;;;;5073903;28;20028;-81
2024/01/28 05:18:23;;;;;;;4.95;2.20;;;11.20;84.90;;;;;;5074461;28;20047;-82
2024/01/28 05:20:49;;;;;;;5.78;2.40;;;11.20;84.90;;;;;;5074711;28;20027;-81
2024/01/28 05:23:14;;;;;;;5.18;2.30;;;11.20;84.90;;;;;;5074173;28;20458;-81
2024/01/28 05:25:40;;;;;;;4.60;2.08;;;11.20;84.90;;;;;;5073985;28;20078;-80
2024/01/28 05:28:07;;;;;;;4.78;1.92;;;11.20;84.90;;;;;;5074012;28;20052;-81
2024/01/28 05:30:33;;;;;;;5.25;2.13;;;11.20;84.90;;;;;;5074099;28;20052;-81
2024/01/28 05:32:58;;;;;;;3.92;1.90;;;11.20;84.90;;;;;;5085440;28;20436;-81
2024/01/28 05:35:24;;;;;;;4.10;2.13;;;11.20;84.90;;;;;;5097662;28;20550;-81
2024/01/28 05:37:50;;;;;;;4.88;2.28;;;11.20;84.90;;;;;;5097974;28;20019;-80
2024/01/28 05:40:16;;;;;;;3.90;2.03;;;11.20;84.90;;;;;;5098043;28;20027;-81
2024/01/28 05:42:42;;;;;;;5.45;2.25;;;11.20;85.10;;;;;;5116326;28;20109;-80
2024/01/28 05:45:08;;;;;;;4.75;2.10;;;11.20;84.90;;;;;;5116248;28;20024;-81
2024/01/28 05:47:34;;;;;;;4.43;2.10;;;11.20;84.80;;;;;;5096626;28;20030;-81
2024/01/28 05:49:59;;;;;;;4.65;2.10;;;11.20;84.80;;;;;;5103295;27;20035;-80
2024/01/28 05:52:25;;;;;;;5.20;2.42;;;11.20;84.80;;;;;;5118499;27;20049;-81
2024/01/28 05:54:50;;;;;;;4.82;2.28;;;11.20;85.30;;;;;;5136644;27;20061;-81
2024/01/28 05:57:16;;;;;;;5.15;2.35;;;11.10;84.70;;;;;;5117897;27;20028;-80
2024/01/28 05:59:41;;;;;;;4.75;2.17;;;11.20;84.80;;;;;;5118261;27;20641;-80
2024/01/28 06:02:07;;;;;;;5.78;2.30;;;11.20;84.80;;;;;;5118290;27;20152;-80
2024/01/28 06:04:32;;;;;;;5.32;1.95;;;11.10;84.70;;;;;;5118111;27;20015;-80
2024/01/28 06:06:59;;;;;;;4.18;2.08;;;11.20;84.80;;;;;;5117767;27;20020;-81
2024/01/28 06:09:26;;;;;;;4.85;2.20;;;11.20;84.80;;;;;;5117883;27;20019;-81
2024/01/28 06:11:51;;;;;;;4.22;1.90;;;11.10;84.70;;;;;;5117942;27;20030;-81
2024/01/28 06:14:17;;;;;;;4.80;2.35;;;11.20;84.80;;;;;;5117788;27;20695;-81
2024/01/28 06:16:42;;;;;;;3.78;1.95;;;11.10;84.70;;;;;;5117644;27;20019;-80
2024/01/28 06:19:08;;;;;;;5.15;2.45;;;11.10;84.80;;;;;;5117932;27;20035;-80
2024/01/28 06:21:33;;;;;;;4.68;2.45;;;11.20;84.80;;;;;;5117754;27;20118;-80
2024/01/28 06:23:59;;;;;;;4.65;2.30;;;11.10;84.60;;;;;;5117546;27;20388;-80
2024/01/28 06:26:24;;;;;;;4.55;2.05;;;11.10;84.70;;;;;;5117564;27;20019;-80
2024/01/28 06:28:50;;;;;;;5.18;2.20;;;11.20;84.80;;;;;;5117554;27;20569;-80
2024/01/28 06:31:15;;;;;;;3.85;1.90;;;11.10;84.70;;;;;;5117726;27;20126;-80
2024/01/28 06:33:43;;;;;;;4.55;2.20;;;11.20;84.80;;;;;;5135695;27;20031;-80
2024/01/28 06:36:08;;;;;;;5.25;2.17;;;11.10;84.70;;;;;;5117200;27;20548;-80
2024/01/28 06:38:33;;;;;;;4.53;2.20;;;11.10;84.70;;;;;;5117565;27;20019;-81
2024/01/28 06:41:00;;;;;;;4.43;2.33;;;11.20;84.80;;;;;;5117418;27;20030;-80
2024/01/28 06:43:25;;;;;;;4.63;2.28;;;11.10;84.70;;;;;;5117551;27;20478;-80
2024/01/28 06:45:54;;;;;;;4.20;1.98;;;11.10;84.70;;;;;;5116617;27;20035;-80
2024/01/28 06:48:20;;;;;;;4.10;2.13;;;11.20;84.80;;;;;;5117276;27;20027;-81
2024/01/28 06:50:46;;;;;;;4.60;2.25;;;11.10;84.70;;;;;;5117076;27;20025;-81
2024/01/28 06:53:12;;;;;;;3.78;2.00;;;11.10;84.70;;;;;;5135469;27;20054;-81
2024/01/28 06:55:38;;;;;;;4.22;2.13;;;11.10;84.80;;;;;;5135332;27;20066;-81
2024/01/28 06:58:03;;;;;;;5.28;2.10;;;11.10;84.80;;;;;;5116897;27;20054;-81
2024/01/28 07:00:29;;;;;;;4.60;1.88;;;11.10;84.70;;;;;;5117066;27;20050;-81
2024/01/28 07:02:55;;;;;;;4.75;2.10;;;11.10;84.80;;;;;;5116711;27;20026;-81
2024/01/28 07:05:21;;;;;;;4.05;2.17;;;11.20;84.80;;;;;;5116671;27;20031;-81
2024/01/28 07:07:46;;;;;;;3.95;2.08;;;11.10;84.80;;;;;;5135243;27;20385;-81
2024/01/28 07:10:12;;;;;;;4.25;2.10;;;11.10;84.80;;;;;;5116975;27;20023;-81
2024/01/28 07:12:39;;;;;;;3.83;2.00;;;11.10;84.70;;;;;;5135163;27;20038;-80
2024/01/28 07:15:05;;;;;;;4.07;1.98;;;11.10;84.70;;;;;;5116602;27;20118;-81
2024/01/28 07:17:31;;;;;;;5.13;2.28;;;11.10;84.80;;;;;;5134856;27;20026;-81
2024/01/28 07:19:56;;;;;;;4.65;2.20;;;11.10;84.70;;;;;;5132719;27;20019;-80
2024/01/28 07:22:22;;;;;;;5.25;2.55;;;11.20;84.80;;;;;;5103678;28;20111;-80
2024/01/28 07:24:48;;;;;;;4.75;2.10;;;11.10;84.70;;;;;;5092819;28;20062;-81
2024/01/28 07:27:14;;;;;;;4.35;2.10;;;11.10;84.70;;;;;;5095902;27;20059;-79
2024/01/28 07:29:39;;;;;;;4.18;1.98;;;11.10;84.70;;;;;;5113513;27;20019;-81
2024/01/28 07:32:05;;;;;;;6.05;2.30;;;11.10;84.70;;;;;;5113489;27;20039;-80
2024/01/28 07:34:30;;;;;;;5.78;2.30;;;11.20;84.70;;;;;;5113227;27;20035;-81
2024/01/28 07:36:57;;;;;;;5.18;2.33;;;11.10;84.60;;;;;;5113039;27;20035;-80
2024/01/28 07:39:23;;;;;;;5.18;2.33;;;11.10;84.60;;;;;;5115178;27;20023;-78
2024/01/28 07:41:48;;;;;;;4.55;2.28;;;11.10;84.50;;;;;;5133526;27;20084;-80
2024/01/28 07:44:14;;;;;;;4.88;2.30;;;11.20;84.50;;;;;;5134287;27;20031;-81
2024/01/28 07:46:39;;;;;;;4.43;2.13;;;11.20;84.50;;;;;;5114290;27;20023;-81
2024/01/28 07:49:05;;;;;;;4.63;2.15;;;11.20;84.40;;;;;;5114680;27;20019;-81
2024/01/28 07:51:30;;;;;;;4.63;2.10;;;11.20;84.40;;;;;;5114493;27;20392;-81
2024/01/28 07:53:56;;;;;;;4.50;2.17;;;11.20;84.30;;;;;;5113680;27;20039;-82
2024/01/28 07:56:22;;;;;;;4.18;2.10;;;11.20;84.20;;;;;;5113431;27;20063;-82
2024/01/28 07:58:47;;;;;;;4.47;2.13;;;11.30;84.20;;;;;;5113735;27;20019;-78
2024/01/28 08:01:12;;;;;;;4.95;2.30;;;11.20;84.10;;;;;;5114061;27;20027;-81
2024/01/28 08:03:38;;;;;;;3.63;2.00;;;11.30;84.10;;;;;;5132028;27;20134;-80
2024/01/28 08:06:04;;;;;;;4.82;2.25;;;11.30;84.00;;;;;;5114321;27;20055;-81
2024/01/28 08:08:30;;;;;;;4.85;2.30;;;11.30;83.90;;;;;;5114099;27;20555;-81
2024/01/28 08:10:56;;;;;;;4.78;2.10;;;11.30;83.90;;;;;;5112806;27;20031;-81
2024/01/28 08:13:22;;;;;;;3.75;2.25;;;11.40;83.90;;;;;;5113431;27;20054;-82
2024/01/28 08:15:48;;;;;;;4.28;2.20;;;11.40;83.80;;;;;;5113299;27;20023;-81
2024/01/28 08:18:14;;;;;;;4.65;2.20;;;11.40;83.70;;;;;;5113266;27;20041;-83
2024/01/28 08:20:39;;;;;;;4.07;2.13;;;11.40;83.70;;;;;;5131668;27;20019;-81
2024/01/28 08:23:05;;;;;;;5.38;2.42;;;11.40;83.60;;;;;;5131812;27;20424;-81
2024/01/28 08:25:31;;;;;;;5.05;2.30;;;11.50;83.60;;;;;;5113696;27;20049;-82
2024/01/28 08:27:56;;;;;;;4.38;2.08;;;11.50;83.60;;;;;;5114824;27;20026;-82
2024/01/28 08:30:23;;;;;;;4.05;1.75;;;11.50;83.60;;;;;;5132937;27;20037;-80
2024/01/28 08:32:49;;;;;;;4.22;2.28;;;11.50;83.60;;;;;;5113040;27;20498;-81
2024/01/28 08:35:16;;;;;;;4.53;2.20;;;11.60;83.60;;;;;;5112960;27;20070;-81
2024/01/28 08:37:42;;;;;;;3.35;1.90;;;11.60;83.60;;;;;;5112593;27;20055;-81
2024/01/28 08:40:08;;;;;;;4.57;2.13;;;11.60;83.50;;;;;;5113326;28;20058;-81
2024/01/28 08:42:34;;;;;;;4.03;2.10;;;11.70;83.50;;;;;;5113295;28;20019;-82
2024/01/28 08:44:59;;;;;;;4.53;2.25;;;11.70;83.40;;;;;;5113363;28;20068;-82
2024/01/28 08:47:25;;;;;;;4.80;2.30;;;11.70;83.40;;;;;;5114294;28;20027;-81
2024/01/28 08:49:51;;;;;;;3.83;1.83;;;11.70;83.40;;;;;;5132212;28;20023;-82
2024/01/28 08:52:16;;;;;;;4.10;1.85;;;11.70;83.30;;;;;;5094993;28;20028;-82
2024/01/28 08:54:45;;;;;;;3.97;2.00;;;11.80;83.30;;;;;;5072506;28;20091;-82
2024/01/28 08:57:11;;;;;;;3.63;1.90;;;11.70;83.20;;;;;;5091435;28;20020;-82
2024/01/28 08:59:37;;;;;;;4.82;2.00;;;11.80;83.20;;;;;;5072837;28;20028;-81
2024/01/28 09:02:03;;;;;;;4.05;2.10;;;11.90;83.20;;;;;;5072978;28;20311;-83
2024/01/28 09:04:28;;;;;;;4.80;2.17;;;11.90;83.50;;;;;;5072596;28;20024;-82
2024/01/28 09:06:54;;;;;;;4.25;1.90;;;11.90;83.10;;;;;;5073321;28;20036;-81
2024/01/28 09:09:19;;;;;;;4.65;2.10;;;11.90;83.10;;;;;;5077546;28;20032;-82
2024/01/28 09:11:45;;;;;;;3.45;1.80;;;12.10;83.10;;;;;;5077212;28;20127;-83
2024/01/28 09:14:10;;;;;;;3.85;2.10;;;11.90;83.00;;;;;;5077616;28;20110;-83
2024/01/28 09:16:36;;;;;;;3.33;1.70;;;12.00;83.00;;;;;;5077542;28;20035;-81
2024/01/28 09:19:03;;;;;;;3.35;1.80;;;12.00;82.90;;;;;;5076383;28;20020;-81
2024/01/28 09:21:30;;;;;;;4.38;2.10;;;12.00;82.90;;;;;;5095756;28;20776;-81
2024/01/28 09:23:57;;;;;;;3.42;1.80;;;12.00;82.80;;;;;;5077411;28;20174;-84
2024/01/28 09:26:22;;;;;;;4.65;2.05;;;12.00;82.70;;;;;;5077548;28;20373;-81
2024/01/28 09:28:48;;;;;;;4.38;2.05;;;12.00;82.60;;;;;;5076375;28;20031;-81
2024/01/28 09:31:13;;;;;;;4.00;2.00;;;12.10;82.60;;;;;;5076231;28;20024;-84
2024/01/28 09:33:39;;;;;;;4.03;1.92;;;12.10;82.60;;;;;;5076487;28;20068;-81
2024/01/28 09:36:04;;;;;;;3.97;1.90;;;12.10;82.60;;;;;;5094987;28;20028;-82
2024/01/28 09:38:30;;;;;;;3.83;1.85;;;12.10;83.10;;;;;;5077052;28;20876;-81
2024/01/28 09:41:04;;;;;;;4.13;2.00;;;12.10;82.50;;;;;;5077518;28;20020;-82
2024/01/28 09:43:30;;;;;;;4.55;1.80;;;12.10;82.40;;;;;;5076576;28;20102;-81
2024/01/28 09:45:57;;;;;;;3.60;1.90;;;12.10;82.40;;;;;;5075738;28;20476;-82
2024/01/28 09:48:22;;;;;;;3.78;1.95;;;12.20;82.40;;;;;;5076272;28;20396;-81
2024/01/28 09:50:48;;;;;;;4.15;2.05;;;12.20;82.30;;;;;;5076454;28;20040;-79
2024/01/28 09:53:14;;;;;;;2.67;1.63;;;12.20;82.20;;;;;;5076891;28;20122;-81
2024/01/28 09:55:40;;;;;;;3.90;2.00;;;12.20;82.20;;;;;;5076764;28;20107;-82
2024/01/28 09:58:06;;;;;;;5.55;2.35;;;12.30;82.20;;;;;;5076267;28;20481;-81
2024/01/28 10:00:31;;;;;;;4.45;1.90;;;12.30;82.10;;;;;;5076001;28;20073;-83
2024/01/28 10:02:57;;;;;;;3.80;1.95;;;12.30;82.10;;;;;;5076538;28;20087;-82
2024/01/28 10:05:23;;;;;;;3.47;1.70;;;12.30;82.10;;;;;;5094326;28;20068;-83
2024/01/28 10:07:49;;;;;;;3.78;2.03;;;12.20;82.00;;;;;;5074683;28;20162;-82
2024/01/28 10:10:16;;;;;;;3.97;2.20;;;12.30;82.00;;;;;;5074384;28;20016;-80
2024/01/28 10:12:42;;;;;;;4.18;1.90;;;12.40;82.10;;;;;;5074596;28;20023;-81
2024/01/28 10:15:18;;;;;;;3.83;2.00;;;12.30;82.00;;;;;;5092038;28;20028;-83
2024/01/28 10:17:48;;;;;;;3.88;1.90;;;12.40;82.00;;;;;;5074139;28;20519;-80
2024/01/28 10:20:19;;;;;;;3.95;1.83;;;12.40;82.00;;;;;;5075856;28;20047;-81
2024/01/28 10:22:45;;;;;;;3.55;1.80;;;12.40;82.00;;;;;;5083438;28;20035;-82
2024/01/28 10:25:12;;;;;;;3.08;1.52;;;12.40;81.90;;;;;;5094936;28;20047;-84
2024/01/28 10:27:37;;;;;;;3.53;1.80;;;12.40;81.90;;;;;;5095466;28;20027;-81
2024/01/28 10:30:04;;;;;;;4.13;1.77;;;12.40;81.90;;;;;;5095437;28;20787;-79
2024/01/28 10:32:30;;;;;;;4.60;1.98;;;12.40;81.90;;;;;;5094086;28;20260;-81
2024/01/28 10:34:55;;;;;;;3.83;1.88;;;12.50;81.90;;;;;;5094197;28;20828;-83
2024/01/28 10:37:23;;;;;;;4.40;2.00;;;12.40;81.80;;;;;;5094921;28;20059;-82
2024/01/28 10:39:52;;;;;;;3.40;1.67;;;12.50;81.90;;;;;;5096109;28;20040;-82
2024/01/28 10:42:20;;;;;;;3.38;1.80;;;12.50;81.80;;;;;;5094264;28;20030;-81
2024/01/28 10:44:52;;;;;;;4.05;2.00;;;12.50;81.70;;;;;;5094856;28;20024;-80
2024/01/28 10:47:18;;;;;;;3.10;1.90;;;12.50;81.70;;;;;;5113513;28;20023;-81
2024/01/28 10:49:48;;;;;;;4.05;2.15;;;12.40;81.60;;;;;;5096838;28;20023;-80
2024/01/28 10:52:15;;;;;;;3.83;1.80;;;12.50;81.60;;;;;;5095640;28;20110;-81
2024/01/28 10:54:42;;;;;;;3.67;1.70;;;12.50;81.50;;;;;;5094663;28;20050;-83
2024/01/28 10:57:09;;;;;;;3.83;1.80;;;12.60;81.50;;;;;;5096302;28;20028;-81
2024/01/28 10:59:37;;;;;;;3.47;1.80;;;12.60;81.50;;;;;;5095343;28;20028;-82
2024/01/28 11:02:04;;;;;;;3.70;1.70;;;12.60;81.40;;;;;;5094035;28;20019;-83
2024/01/28 11:04:32;;;;;;;3.60;1.70;;;12.60;81.30;;;;;;5095887;28;20027;-82
2024/01/28 11:06:58;;;;;;;3.30;1.55;;;12.50;81.20;;;;;;5112797;28;20247;-81
2024/01/28 11:09:23;;;;;;;4.57;1.73;;;12.60;81.20;;;;;;5112567;28;20105;-81
2024/01/28 11:11:49;;;;;;;4.63;2.00;;;12.60;81.20;;;;;;5094311;28;20024;-81
2024/01/28 11:14:14;;;;;;;3.88;1.65;;;12.60;81.20;;;;;;5112305;28;20094;-82
2024/01/28 11:16:40;;;;;;;5.03;1.80;;;12.70;81.20;;;;;;5094196;28;20023;-79
2024/01/28 11:19:07;;;;;;;3.28;1.80;;;12.60;81.10;;;;;;5094240;28;20099;-81
2024/01/28 11:21:34;;;;;;;3.50;2.00;;;12.70;81.20;;;;;;5112120;28;20022;-82
2024/01/28 11:24:04;;;;;;;3.92;1.90;;;12.70;81.10;;;;;;5093214;28;20023;-81
2024/01/28 11:26:35;;;;;;;3.23;1.60;;;12.70;81.10;;;;;;5094254;28;20028;-81
2024/01/28 11:29:04;;;;;;;3.55;1.65;;;12.70;81.00;;;;;;5095060;28;20318;-79
2024/01/28 11:31:32;;;;;;;3.70;1.67;;;12.70;81.00;;;;;;5093367;28;20122;-82
2024/01/28 11:34:12;;;;;;;4.05;2.00;;;12.60;80.90;;;;;;5093055;28;20126;-80
2024/01/28 11:36:41;;;;;;;3.13;1.70;;;12.70;81.00;;;;;;5111370;28;20023;-81
2024/01/28 11:39:15;;;;;;;3.17;1.60;;;12.70;81.00;;;;;;5093343;28;20070;-83
2024/01/28 11:41:42;;;;;;;2.90;1.55;;;12.70;81.00;;;;;;5092980;28;20028;-82
2024/01/28 11:44:09;;;;;;;2.47;1.42;;;12.80;81.00;;;;;;5110901;28;20503;-80
2024/01/28 11:46:38;;;;;;;3.60;1.70;;;12.80;80.90;;;;;;5093113;28;20122;-82
2024/01/28 11:49:06;;;;;;;2.60;1.48;;;12.80;80.90;;;;;;5092650;28;20114;-83
2024/01/28 11:51:33;;;;;;;2.78;1.40;;;12.70;80.80;;;;;;5092336;28;20447;-81
2024/01/28 11:54:06;;;;;;;3.60;1.70;;;12.80;80.80;;;;;;5111125;28;20023;-82
2024/01/28 11:56:32;;;;;;;3.55;1.70;;;12.80;80.80;;;;;;5110653;28;20027;-79
2024/01/28 11:58:58;;;;;;;4.22;1.50;;;12.80;80.70;;;;;;5092841;28;20495;-81
2024/01/28 12:01:24;;;;;;;3.80;1.50;;;12.80;80.70;;;;;;5111152;28;20357;-81
2024/01/28 12:03:51;;;;;;;3.17;1.85;;;12.70;80.70;;;;;;5093389;28;20031;-81
2024/01/28 12:06:17;;;;;;;3.15;1.55;;;12.80;80.60;;;;;;5093613;28;20077;-86
2024/01/28 12:08:55;;;;;;;4.07;1.63;;;12.80;80.60;;;;;;5092951;28;20028;-83
2024/01/28 12:11:22;;;;;;;3.35;1.65;;;12.70;80.40;;;;;;5093845;28;20027;-84
2024/01/28 12:13:49;;;;;;;4.28;1.70;;;12.90;80.30;;;;;;5093767;28;20528;-81
2024/01/28 12:16:19;;;;;;;5.05;1.80;;;12.80;80.30;;;;;;5092752;28;20084;-82
2024/01/28 12:18:52;;;;;;;3.92;1.85;;;12.90;80.30;;;;;;5093883;28;20026;-83
2024/01/28 12:21:19;;;;;;;2.88;1.70;;;12.80;80.20;;;;;;5093007;28;20031;-83
2024/01/28 12:23:52;;;;;;;3.83;1.63;;;12.80;80.20;;;;;;5092678;28;20028;-82
2024/01/28 12:26:18;;;;;;;4.03;1.80;;;12.80;80.20;;;;;;5091637;28;20027;-82
2024/01/28 12:28:45;;;;;;;4.35;1.77;;;12.80;80.20;;;;;;5092293;28;20123;-82
2024/01/28 12:31:11;;;;;;;3.22;1.80;;;12.90;80.30;;;;;;5092929;28;20027;-83
2024/01/28 12:33:36;;;;;;;4.57;1.80;;;12.80;80.30;;;;;;5092874;28;20038;-82
2024/01/28 12:36:02;;;;;;;3.75;1.73;;;12.90;80.30;;;;;;5092552;28;20035;-81
2024/01/28 12:38:28;;;;;;;2.92;1.70;;;12.90;80.30;;;;;;5092802;28;20480;-81
2024/01/28 12:40:54;;;;;;;3.58;1.60;;;12.80;80.30;;;;;;5090386;28;20085;-81
2024/01/28 12:43:19;;;;;;;3.42;1.67;;;12.90;80.40;;;;;;5078294;28;20023;-81